Flight Briefing for GRZ522

Departure Arrival
Adak Airport (PADK)
Click to view FAA NOTAMS
Eareckson Air Station (PASY)
Click to view FAA NOTAMS
Departure Time Arrival Time
N/A N/A
Aircraft Distance
B727-200F 344nm
Departure METAR Arrival METAR
PADK 230656Z AUTO 35013KT 10SM -RA BKN015 BKN022 OVC034 05/03 A3009 RMK AO2 RAB41 SLP190 P0000 T00500033 PASY 230615Z 35010KT 10SM BKN009 BKN014 OVC022 05/03 A3033 RMK AO2A CIG 007V011 SLP274 RVRNO $
Suggested Route
ADK J115 SYA


View recent IFR Routes data
Notes
USTRANSCOM CONTRACT FLIGHT

Charts and Procedures

Charts for PADK
No chart available
Charts for PASY
No chart available

Windy.com Weather Map